Time;durP1;ratioP1;P1;durP2;ratioP2;P2;SDS_P1;SDS_P2;PMS_P1;PMS_P2;Temp;Humidity;BMP_temperature;BMP_pressure;BME280_temperature;BME280_humidity;BME280_pressure;Samples;Min_cycle;Max_cycle;Signal;HPM_P1;HPM_P2
2023/08/14 00:08:47;;;;;;;6.73;3.20;;;21.30;99.90;;;;;;21162972;28;20344;-73
2023/08/14 00:18:49;;;;;;;8.97;3.50;;;21.40;99.90;;;;;;21163880;28;20571;-74
2023/08/14 00:28:51;;;;;;;7.47;3.50;;;21.20;99.90;;;;;;21163033;28;20233;-69
2023/08/14 00:38:52;;;;;;;8.83;3.47;;;21.30;99.90;;;;;;21162466;28;20206;-71
2023/08/14 00:48:54;;;;;;;6.50;3.80;;;21.20;99.90;;;;;;21162496;28;20257;-72
2023/08/14 00:58:57;;;;;;;9.07;3.97;;;21.10;99.90;;;;;;21162382;28;20288;-71
2023/08/14 01:08:58;;;;;;;6.77;3.07;;;21.00;99.90;;;;;;21161501;28;20589;-71
2023/08/14 01:19:04;;;;;;;8.83;3.40;;;21.00;99.90;;;;;;21169597;28;20210;-68
2023/08/14 01:29:06;;;;;;;9.53;3.57;;;21.00;99.90;;;;;;21176936;28;20273;-69
2023/08/14 01:39:09;;;;;;;3.70;3.30;;;20.90;99.90;;;;;;21175983;28;20229;-68
2023/08/14 01:49:14;;;;;;;8.63;3.57;;;20.90;99.90;;;;;;21175037;28;20241;-68
2023/08/14 01:59:16;;;;;;;4.63;3.30;;;20.80;99.90;;;;;;21174629;28;20652;-68
2023/08/14 02:09:18;;;;;;;5.47;3.40;;;20.60;99.90;;;;;;21173179;28;20241;-67
2023/08/14 02:19:19;;;;;;;13.90;3.60;;;20.70;99.90;;;;;;21154573;28;20284;-68
2023/08/14 02:29:21;;;;;;;10.23;3.60;;;20.70;99.90;;;;;;21173008;28;20264;-74
2023/08/14 02:39:23;;;;;;;9.93;3.80;;;20.60;99.90;;;;;;21171235;28;20301;-74
2023/08/14 02:49:25;;;;;;;10.93;3.67;;;20.60;99.90;;;;;;21169968;28;20756;-71
2023/08/14 02:59:26;;;;;;;4.97;3.60;;;20.50;99.90;;;;;;21169673;28;20300;-74
2023/08/14 03:09:28;;;;;;;7.40;3.60;;;20.40;99.90;;;;;;21150067;28;20244;-68
2023/08/14 03:19:30;;;;;;;8.57;4.17;;;20.30;99.90;;;;;;21167691;28;20294;-71
2023/08/14 03:29:31;;;;;;;6.93;3.70;;;20.30;99.90;;;;;;21167283;28;20249;-70
2023/08/14 03:39:33;;;;;;;6.47;3.60;;;20.30;99.90;;;;;;21165033;28;20204;-69
2023/08/14 03:49:35;;;;;;;5.83;3.60;;;20.20;99.90;;;;;;21165183;28;20276;-73
2023/08/14 03:59:37;;;;;;;10.40;4.20;;;20.30;99.90;;;;;;21164931;28;20289;-68
2023/08/14 04:09:38;;;;;;;5.70;3.30;;;20.20;99.90;;;;;;21163883;28;20237;-74
2023/08/14 04:19:40;;;;;;;8.00;3.63;;;20.20;99.90;;;;;;21163389;28;20208;-72
2023/08/14 04:29:42;;;;;;;7.47;4.03;;;20.20;99.90;;;;;;21163797;28;20272;-72
2023/08/14 04:39:43;;;;;;;6.20;3.40;;;20.10;99.90;;;;;;21163602;28;20222;-73
2023/08/14 04:49:45;;;;;;;5.17;3.43;;;20.10;99.90;;;;;;21164103;28;20229;-75
2023/08/14 04:59:47;;;;;;;16.23;5.50;;;20.10;99.90;;;;;;21180245;28;20630;-75
2023/08/14 05:09:49;;;;;;;8.33;3.70;;;20.10;99.90;;;;;;21178300;28;20642;-74
2023/08/14 05:19:50;;;;;;;13.73;4.77;;;20.10;99.90;;;;;;21175668;28;20209;-73
2023/08/14 05:29:52;;;;;;;12.17;5.47;;;20.00;99.90;;;;;;21177135;28;20233;-74
2023/08/14 05:39:54;;;;;;;9.73;4.00;;;20.00;99.90;;;;;;21176244;28;20705;-74
2023/08/14 05:49:56;;;;;;;12.23;6.47;;;20.10;99.90;;;;;;21176012;28;20711;-73
2023/08/14 05:59:57;;;;;;;13.73;3.57;;;20.10;99.90;;;;;;21174866;28;20654;-73
2023/08/14 06:09:59;;;;;;;11.90;3.93;;;20.30;99.90;;;;;;21172035;28;20241;-70
2023/08/14 06:20:02;;;;;;;11.80;4.10;;;20.50;99.90;;;;;;21172721;28;20204;-74
2023/08/14 06:30:05;;;;;;;11.03;4.40;;;20.60;99.90;;;;;;21172686;28;20261;-74
2023/08/14 06:40:08;;;;;;;12.20;4.60;;;20.70;99.90;;;;;;21171541;28;20206;-67
2023/08/14 06:50:10;;;;;;;8.33;4.63;;;20.70;99.90;;;;;;21170373;28;20701;-68
2023/08/14 07:00:12;;;;;;;5.87;4.13;;;21.00;99.90;;;;;;21169951;28;20696;-75
2023/08/14 07:10:14;;;;;;;17.57;4.50;;;21.20;99.90;;;;;;21168136;28;20251;-68
2023/08/14 07:20:19;;;;;;;13.10;4.00;;;21.50;99.90;;;;;;21168644;28;20202;-73
2023/08/14 07:30:26;;;;;;;5.83;4.00;;;21.70;99.90;;;;;;21167965;28;20241;-74
2023/08/14 07:40:28;;;;;;;6.73;4.40;;;22.00;99.90;;;;;;21166470;28;20198;-67
2023/08/14 07:50:30;;;;;;;6.83;3.97;;;22.30;99.90;;;;;;21165474;28;20320;-69
2023/08/14 08:00:32;;;;;;;6.40;4.17;;;22.40;99.90;;;;;;21165562;28;20210;-72
2023/08/14 08:10:34;;;;;;;7.77;4.03;;;22.80;99.90;;;;;;21163967;28;20241;-75
2023/08/14 08:20:35;;;;;;;6.90;3.67;;;23.10;99.90;;;;;;21163799;28;20212;-73
2023/08/14 08:30:37;;;;;;;7.23;4.17;;;23.20;99.90;;;;;;21162957;28;20661;-74
2023/08/14 08:40:45;;;;;;;12.30;4.30;;;23.30;99.90;;;;;;21162764;28;20292;-74
2023/08/14 08:50:50;;;;;;;9.20;4.60;;;23.50;99.90;;;;;;21162410;28;20244;-72
2023/08/14 09:00:54;;;;;;;17.17;4.40;;;23.60;99.90;;;;;;21162557;28;20240;-72
2023/08/14 09:10:56;;;;;;;8.23;5.10;;;24.00;99.90;;;;;;21161592;28;20683;-74
2023/08/14 09:21:00;;;;;;;5.50;3.83;;;24.20;99.90;;;;;;21161300;28;20210;-75
2023/08/14 09:31:09;;;;;;;8.47;5.47;;;24.50;99.90;;;;;;21161209;28;20234;-75
2023/08/14 09:41:11;;;;;;;5.83;3.87;;;24.80;99.90;;;;;;21170301;28;20297;-68
2023/08/14 09:51:15;;;;;;;5.47;3.43;;;24.90;99.90;;;;;;21175051;28;20711;-68
2023/08/14 10:01:19;;;;;;;7.57;3.40;;;25.10;99.90;;;;;;21174415;28;20212;-69
2023/08/14 10:11:26;;;;;;;3.57;3.20;;;25.40;99.90;;;;;;21173173;28;20273;-72
2023/08/14 10:21:32;;;;;;;8.00;4.30;;;25.60;99.90;;;;;;21173284;28;20210;-68
2023/08/14 10:31:34;;;;;;;4.75;3.05;;;25.70;99.90;;;;;;21173013;28;20230;-73
2023/08/14 10:41:36;;;;;;;4.57;2.88;;;26.00;99.90;;;;;;21171087;28;20284;-73
2023/08/14 10:51:42;;;;;;;4.10;3.10;;;26.30;99.90;;;;;;21170202;28;20697;-74
2023/08/14 11:01:50;;;;;;;3.97;2.80;;;26.50;99.90;;;;;;21170135;28;20205;-68
2023/08/14 11:11:55;;;;;;;9.30;5.50;;;26.70;99.90;;;;;;21168732;28;20674;-69
2023/08/14 11:21:57;;;;;;;3.35;2.53;;;27.00;99.90;;;;;;21167774;28;20244;-70
2023/08/14 11:32:00;;;;;;;3.85;2.60;;;27.20;99.90;;;;;;21167363;28;20329;-73
2023/08/14 11:42:03;;;;;;;4.63;2.30;;;27.50;99.50;;;;;;21166400;28;20213;-73
2023/08/14 11:52:06;;;;;;;2.40;2.20;;;27.80;98.20;;;;;;21165915;28;20226;-68
2023/08/14 12:02:10;;;;;;;4.05;3.05;;;27.80;97.10;;;;;;21164186;28;20285;-74
2023/08/14 12:12:13;;;;;;;4.28;2.10;;;28.00;96.40;;;;;;21164408;28;20237;-74
2023/08/14 12:22:15;;;;;;;5.63;4.30;;;28.40;95.70;;;;;;21164874;28;20206;-73
2023/08/14 12:32:17;;;;;;;7.68;3.10;;;28.80;94.20;;;;;;21163174;28;20325;-74
2023/08/14 12:42:19;;;;;;;4.40;2.67;;;28.60;93.60;;;;;;21163378;28;20212;-74
2023/08/14 12:52:21;;;;;;;6.25;2.40;;;28.60;92.90;;;;;;21162357;28;20707;-75
2023/08/14 13:02:23;;;;;;;2.83;2.30;;;28.70;92.20;;;;;;21162084;28;20206;-75
2023/08/14 13:12:26;;;;;;;2.35;2.08;;;28.80;90.40;;;;;;21165812;28;20249;-71
2023/08/14 13:22:28;;;;;;;5.28;1.90;;;28.90;88.60;;;;;;21177471;28;20285;-71
2023/08/14 13:32:30;;;;;;;2.80;2.17;;;29.00;87.00;;;;;;21176481;28;20629;-74
2023/08/14 13:42:32;;;;;;;5.43;1.80;;;29.30;85.20;;;;;;21176196;28;20580;-75
2023/08/14 13:52:33;;;;;;;2.80;2.08;;;29.60;80.40;;;;;;21175139;28;20261;-75
2023/08/14 14:02:35;;;;;;;2.03;1.77;;;29.60;75.00;;;;;;21174406;28;20265;-73
2023/08/14 14:12:37;;;;;;;3.58;2.00;;;30.50;70.90;;;;;;21173697;28;20290;-70
2023/08/14 14:22:48;;;;;;;3.47;1.92;;;32.00;61.20;;;;;;21172340;28;20778;-69
2023/08/14 14:32:49;;;;;;;2.05;1.60;;;31.50;59.70;;;;;;21170321;28;20317;-69
2023/08/14 14:42:51;;;;;;;4.60;2.60;;;31.50;59.50;;;;;;21171913;28;20653;-74
2023/08/14 14:52:53;;;;;;;3.13;2.22;;;34.00;54.70;;;;;;21170709;28;20272;-69
2023/08/14 15:02:55;;;;;;;20.65;3.03;;;34.70;53.90;;;;;;21191822;27;20213;-71
2023/08/14 15:12:57;;;;;;;4.40;2.00;;;37.50;50.00;;;;;;21239941;27;20880;-72
2023/08/14 15:22:59;;;;;;;4.13;2.22;;;36.10;49.40;;;;;;21168186;27;20360;-71
2023/08/14 15:33:01;;;;;;;3.15;2.15;;;33.60;51.80;;;;;;21190355;27;20229;-70
2023/08/14 15:43:03;;;;;;;4.78;2.25;;;32.10;53.60;;;;;;21252606;27;20201;-70
2023/08/14 15:53:05;;;;;;;3.08;2.33;;;31.10;55.20;;;;;;21256308;27;20293;-71
2023/08/14 16:03:07;;;;;;;4.50;3.30;;;30.50;56.90;;;;;;21251429;27;20292;-71
2023/08/14 16:13:09;;;;;;;6.50;2.42;;;29.90;58.40;;;;;;21174153;27;20242;-73
2023/08/14 16:23:11;;;;;;;8.52;2.45;;;29.50;59.70;;;;;;21145481;28;20236;-71
2023/08/14 16:33:13;;;;;;;3.33;2.05;;;29.20;61.30;;;;;;21163349;28;20678;-70
2023/08/14 16:43:15;;;;;;;4.43;2.22;;;29.10;62.80;;;;;;21163423;28;20565;-73
2023/08/14 16:53:16;;;;;;;11.38;3.47;;;29.00;64.00;;;;;;21177421;28;20243;-75
2023/08/14 17:03:18;;;;;;;3.75;2.22;;;28.80;66.30;;;;;;21179399;28;20292;-73
2023/08/14 17:13:20;;;;;;;5.57;2.78;;;28.50;68.30;;;;;;21255539;27;20233;-71
2023/08/14 17:23:22;;;;;;;6.13;2.70;;;28.40;70.00;;;;;;21262949;27;20645;-73
2023/08/14 17:33:24;;;;;;;5.75;1.85;;;28.20;72.60;;;;;;21262171;27;20582;-70
2023/08/14 17:43:26;;;;;;;7.47;2.70;;;28.10;73.30;;;;;;21261748;27;20232;-67
2023/08/14 17:53:28;;;;;;;4.32;1.90;;;27.80;73.30;;;;;;21260459;27;20699;-68
2023/08/14 18:03:30;;;;;;;3.85;2.25;;;27.70;73.80;;;;;;21256409;27;20632;-63
2023/08/14 18:13:32;;;;;;;4.40;2.25;;;27.60;73.40;;;;;;21160993;28;20251;-66
2023/08/14 18:23:34;;;;;;;5.90;2.72;;;27.50;73.40;;;;;;21172904;28;20212;-71
2023/08/14 18:33:35;;;;;;;12.25;3.22;;;27.30;74.40;;;;;;21171807;28;20230;-71
2023/08/14 18:43:37;;;;;;;5.72;3.20;;;27.20;77.00;;;;;;21171685;28;20233;-71
2023/08/14 18:53:39;;;;;;;5.80;3.60;;;27.10;79.90;;;;;;21170388;28;20233;-72
2023/08/14 19:03:41;;;;;;;8.80;3.42;;;26.90;82.80;;;;;;21169415;28;20208;-70
2023/08/14 19:13:42;;;;;;;10.77;3.45;;;26.80;85.50;;;;;;21248542;27;20237;-73
2023/08/14 19:23:44;;;;;;;10.60;3.50;;;26.60;86.60;;;;;;21252932;27;20284;-64
2023/08/14 19:33:46;;;;;;;5.53;3.23;;;26.30;89.90;;;;;;21252346;27;20237;-65
2023/08/14 19:43:48;;;;;;;7.27;3.30;;;26.10;91.30;;;;;;21251771;27;20304;-64
2023/08/14 19:53:50;;;;;;;6.78;3.60;;;25.90;92.20;;;;;;21250454;27;20783;-64
2023/08/14 20:03:51;;;;;;;8.57;3.67;;;25.70;93.30;;;;;;21250054;27;20664;-64
2023/08/14 20:13:53;;;;;;;5.10;3.50;;;25.50;94.40;;;;;;21167844;27;20328;-65
2023/08/14 20:23:55;;;;;;;12.90;3.60;;;25.30;95.60;;;;;;21162933;28;20235;-65
2023/08/14 20:33:57;;;;;;;6.93;4.27;;;25.20;96.50;;;;;;21163630;28;20691;-65
2023/08/14 20:43:58;;;;;;;8.67;4.30;;;25.00;97.50;;;;;;21163394;28;20575;-65
2023/08/14 20:54:00;;;;;;;10.47;4.97;;;24.90;98.20;;;;;;21159140;28;20236;-63
2023/08/14 21:04:02;;;;;;;9.27;4.63;;;24.80;99.00;;;;;;21161829;28;20284;-63
2023/08/14 21:14:04;;;;;;;13.73;5.03;;;24.50;99.90;;;;;;21162507;28;20716;-73
2023/08/14 21:24:06;;;;;;;7.07;4.30;;;24.40;99.90;;;;;;21161893;28;20202;-70
2023/08/14 21:34:12;;;;;;;12.87;4.40;;;24.20;99.90;;;;;;21166102;28;20320;-70
2023/08/14 21:44:14;;;;;;;9.90;4.47;;;24.20;99.90;;;;;;21176701;28;20650;-66
2023/08/14 21:54:17;;;;;;;16.47;5.00;;;24.10;99.90;;;;;;21175640;28;20233;-70
2023/08/14 22:04:21;;;;;;;11.83;4.60;;;24.00;99.90;;;;;;21174313;28;20209;-67
2023/08/14 22:14:24;;;;;;;10.90;5.40;;;23.90;99.90;;;;;;21174125;28;20234;-71
2023/08/14 22:24:26;;;;;;;12.50;4.90;;;23.70;99.90;;;;;;21173176;28;20210;-71
2023/08/14 22:34:42;;;;;;;6.80;4.43;;;23.50;99.90;;;;;;21172252;28;20320;-71
2023/08/14 22:44:43;;;;;;;6.93;4.50;;;23.30;99.90;;;;;;21171470;28;20288;-71
2023/08/14 22:54:45;;;;;;;7.83;4.50;;;23.30;99.90;;;;;;21170578;28;20329;-72
2023/08/14 23:04:47;;;;;;;8.63;4.97;;;23.20;99.90;;;;;;21169593;28;20241;-71
2023/08/14 23:14:49;;;;;;;9.03;4.60;;;23.20;99.90;;;;;;21169896;28;20240;-69
2023/08/14 23:24:50;;;;;;;8.20;4.20;;;23.00;99.90;;;;;;21168161;28;20237;-63
2023/08/14 23:34:52;;;;;;;9.87;4.60;;;22.90;99.90;;;;;;21167264;28;20238;-65
2023/08/14 23:44:54;;;;;;;9.93;4.73;;;22.90;99.90;;;;;;21167190;28;20668;-65
2023/08/14 23:54:55;;;;;;;9.27;4.60;;;22.80;99.90;;;;;;21165788;28;20324;-64
